sensor_id;sensor_type;location;lat;lon;timestamp;temperature;humidity
66057;DHT22;52842;52.666;5.202;2022-12-07T00:00:32;18.40;62.10
66057;DHT22;52842;52.666;5.202;2022-12-07T00:03:00;18.40;62.10
66057;DHT22;52842;52.666;5.202;2022-12-07T00:05:29;18.40;62.20
66057;DHT22;52842;52.666;5.202;2022-12-07T00:07:56;18.40;63.00
66057;DHT22;52842;52.666;5.202;2022-12-07T00:10:22;18.40;62.10
66057;DHT22;52842;52.666;5.202;2022-12-07T00:12:49;18.40;62.10
66057;DHT22;52842;52.666;5.202;2022-12-07T00:15:16;18.40;62.10
66057;DHT22;52842;52.666;5.202;2022-12-07T00:17:43;18.40;62.10
66057;DHT22;52842;52.666;5.202;2022-12-07T00:20:11;18.40;62.10
66057;DHT22;52842;52.666;5.202;2022-12-07T00:22:38;18.40;62.10
66057;DHT22;52842;52.666;5.202;2022-12-07T00:25:04;18.40;62.10
66057;DHT22;52842;52.666;5.202;2022-12-07T00:27:31;18.40;62.10
66057;DHT22;52842;52.666;5.202;2022-12-07T00:29:58;18.40;62.10
66057;DHT22;52842;52.666;5.202;2022-12-07T00:32:24;18.40;62.00
66057;DHT22;52842;52.666;5.202;2022-12-07T00:34:51;18.40;62.00
66057;DHT22;52842;52.666;5.202;2022-12-07T00:37:19;18.40;62.00
66057;DHT22;52842;52.666;5.202;2022-12-07T00:39:46;18.40;62.00
66057;DHT22;52842;52.666;5.202;2022-12-07T00:42:12;18.40;62.00
66057;DHT22;52842;52.666;5.202;2022-12-07T00:44:39;18.40;62.00
66057;DHT22;52842;52.666;5.202;2022-12-07T00:47:06;18.40;62.00
66057;DHT22;52842;52.666;5.202;2022-12-07T00:49:32;18.40;61.90
66057;DHT22;52842;52.666;5.202;2022-12-07T00:51:59;18.40;61.90
66057;DHT22;52842;52.666;5.202;2022-12-07T00:54:27;18.40;61.90
66057;DHT22;52842;52.666;5.202;2022-12-07T00:56:54;18.40;61.80
66057;DHT22;52842;52.666;5.202;2022-12-07T00:59:20;18.40;61.90
66057;DHT22;52842;52.666;5.202;2022-12-07T01:01:47;18.40;61.90
66057;DHT22;52842;52.666;5.202;2022-12-07T01:04:14;18.40;61.80
66057;DHT22;52842;52.666;5.202;2022-12-07T01:06:40;18.40;61.80
66057;DHT22;52842;52.666;5.202;2022-12-07T01:09:07;18.30;61.80
66057;DHT22;52842;52.666;5.202;2022-12-07T01:11:35;18.30;61.80
66057;DHT22;52842;52.666;5.202;2022-12-07T01:14:02;18.30;61.80
66057;DHT22;52842;52.666;5.202;2022-12-07T01:16:29;18.30;61.80
66057;DHT22;52842;52.666;5.202;2022-12-07T01:18:56;18.30;61.80
66057;DHT22;52842;52.666;5.202;2022-12-07T01:21:24;18.30;61.80
66057;DHT22;52842;52.666;5.202;2022-12-07T01:23:51;18.30;61.90
66057;DHT22;52842;52.666;5.202;2022-12-07T01:26:19;18.30;61.90
66057;DHT22;52842;52.666;5.202;2022-12-07T01:28:47;18.30;61.90
66057;DHT22;52842;52.666;5.202;2022-12-07T01:31:14;18.30;61.90
66057;DHT22;52842;52.666;5.202;2022-12-07T01:33:42;18.30;61.90
66057;DHT22;52842;52.666;5.202;2022-12-07T01:36:12;18.30;62.60
66057;DHT22;52842;52.666;5.202;2022-12-07T01:38:39;18.30;61.90
66057;DHT22;52842;52.666;5.202;2022-12-07T01:41:06;18.30;61.90
66057;DHT22;52842;52.666;5.202;2022-12-07T01:43:33;18.30;61.90
66057;DHT22;52842;52.666;5.202;2022-12-07T01:46:02;18.30;61.90
66057;DHT22;52842;52.666;5.202;2022-12-07T01:48:30;18.30;61.90
66057;DHT22;52842;52.666;5.202;2022-12-07T01:51:00;18.30;61.90
66057;DHT22;52842;52.666;5.202;2022-12-07T01:53:27;18.30;61.90
66057;DHT22;52842;52.666;5.202;2022-12-07T01:55:55;18.30;61.90
66057;DHT22;52842;52.666;5.202;2022-12-07T01:58:23;18.30;61.80
66057;DHT22;52842;52.666;5.202;2022-12-07T02:00:50;18.30;61.80
66057;DHT22;52842;52.666;5.202;2022-12-07T02:03:18;18.30;61.80
66057;DHT22;52842;52.666;5.202;2022-12-07T02:05:46;18.30;61.80
66057;DHT22;52842;52.666;5.202;2022-12-07T02:08:13;18.30;62.60
66057;DHT22;52842;52.666;5.202;2022-12-07T02:10:40;18.30;61.80
66057;DHT22;52842;52.666;5.202;2022-12-07T02:13:08;18.30;61.90
66057;DHT22;52842;52.666;5.202;2022-12-07T02:15:43;18.30;61.80
66057;DHT22;52842;52.666;5.202;2022-12-07T02:18:13;18.30;61.80
66057;DHT22;52842;52.666;5.202;2022-12-07T02:20:44;18.30;61.80
66057;DHT22;52842;52.666;5.202;2022-12-07T02:28:54;18.30;61.70
66057;DHT22;52842;52.666;5.202;2022-12-07T02:31:23;18.30;61.70
66057;DHT22;52842;52.666;5.202;2022-12-07T02:33:52;18.30;61.60
66057;DHT22;52842;52.666;5.202;2022-12-07T02:36:21;18.30;61.60
66057;DHT22;52842;52.666;5.202;2022-12-07T02:38:50;18.20;61.40
66057;DHT22;52842;52.666;5.202;2022-12-07T02:41:22;18.20;61.40
66057;DHT22;52842;52.666;5.202;2022-12-07T02:43:52;18.20;61.40
66057;DHT22;52842;52.666;5.202;2022-12-07T02:46:22;18.20;61.40
66057;DHT22;52842;52.666;5.202;2022-12-07T02:48:49;18.20;61.40
66057;DHT22;52842;52.666;5.202;2022-12-07T02:51:17;18.20;61.40
66057;DHT22;52842;52.666;5.202;2022-12-07T02:53:44;18.20;61.40
66057;DHT22;52842;52.666;5.202;2022-12-07T02:56:11;18.20;61.40
66057;DHT22;52842;52.666;5.202;2022-12-07T02:58:43;18.20;61.40
66057;DHT22;52842;52.666;5.202;2022-12-07T03:01:15;18.20;61.30
66057;DHT22;52842;52.666;5.202;2022-12-07T03:03:47;18.20;61.30
66057;DHT22;52842;52.666;5.202;2022-12-07T03:06:16;18.20;61.20
66057;DHT22;52842;52.666;5.202;2022-12-07T03:08:47;18.20;61.20
66057;DHT22;52842;52.666;5.202;2022-12-07T03:11:19;18.20;61.10
66057;DHT22;52842;52.666;5.202;2022-12-07T03:13:48;18.20;61.20
66057;DHT22;52842;52.666;5.202;2022-12-07T03:16:18;18.20;61.10
66057;DHT22;52842;52.666;5.202;2022-12-07T03:18:49;18.20;61.20
66057;DHT22;52842;52.666;5.202;2022-12-07T03:21:18;18.20;61.10
66057;DHT22;52842;52.666;5.202;2022-12-07T03:23:48;18.20;61.10
66057;DHT22;52842;52.666;5.202;2022-12-07T03:26:16;18.20;61.20
66057;DHT22;52842;52.666;5.202;2022-12-07T03:28:44;18.20;61.20
66057;DHT22;52842;52.666;5.202;2022-12-07T03:31:16;18.20;61.20
66057;DHT22;52842;52.666;5.202;2022-12-07T03:33:44;18.20;61.20
66057;DHT22;52842;52.666;5.202;2022-12-07T03:36:14;18.20;61.30
66057;DHT22;52842;52.666;5.202;2022-12-07T03:38:44;18.20;61.20
66057;DHT22;52842;52.666;5.202;2022-12-07T03:41:12;18.20;61.20
66057;DHT22;52842;52.666;5.202;2022-12-07T03:43:41;18.20;61.20
66057;DHT22;52842;52.666;5.202;2022-12-07T03:46:11;18.20;61.20
66057;DHT22;52842;52.666;5.202;2022-12-07T03:48:44;18.20;61.20
66057;DHT22;52842;52.666;5.202;2022-12-07T03:51:14;18.20;61.10
66057;DHT22;52842;52.666;5.202;2022-12-07T03:53:43;18.20;61.10
66057;DHT22;52842;52.666;5.202;2022-12-07T03:56:11;18.20;61.00
66057;DHT22;52842;52.666;5.202;2022-12-07T03:58:38;18.20;61.00
66057;DHT22;52842;52.666;5.202;2022-12-07T04:01:05;18.20;61.00
66057;DHT22;52842;52.666;5.202;2022-12-07T04:03:32;18.20;60.90
66057;DHT22;52842;52.666;5.202;2022-12-07T04:05:59;18.20;60.90
66057;DHT22;52842;52.666;5.202;2022-12-07T04:08:27;18.20;60.90
66057;DHT22;52842;52.666;5.202;2022-12-07T04:10:54;18.20;60.90
66057;DHT22;52842;52.666;5.202;2022-12-07T04:13:20;18.20;60.90
66057;DHT22;52842;52.666;5.202;2022-12-07T04:15:47;18.20;60.90
66057;DHT22;52842;52.666;5.202;2022-12-07T04:18:14;18.20;60.80
66057;DHT22;52842;52.666;5.202;2022-12-07T04:20:40;18.20;60.80
66057;DHT22;52842;52.666;5.202;2022-12-07T04:23:07;18.20;60.70
66057;DHT22;52842;52.666;5.202;2022-12-07T04:25:35;18.20;60.60
66057;DHT22;52842;52.666;5.202;2022-12-07T04:28:02;18.20;60.60
66057;DHT22;52842;52.666;5.202;2022-12-07T04:30:28;18.20;60.60
66057;DHT22;52842;52.666;5.202;2022-12-07T04:32:55;18.20;60.70
66057;DHT22;52842;52.666;5.202;2022-12-07T04:35:22;18.20;60.80
66057;DHT22;52842;52.666;5.202;2022-12-07T04:37:48;18.20;61.00
66057;DHT22;52842;52.666;5.202;2022-12-07T04:40:15;18.20;61.20
66057;DHT22;52842;52.666;5.202;2022-12-07T04:42:43;18.20;61.50
66057;DHT22;52842;52.666;5.202;2022-12-07T04:45:10;18.20;61.70
66057;DHT22;52842;52.666;5.202;2022-12-07T04:47:36;18.20;61.90
66057;DHT22;52842;52.666;5.202;2022-12-07T04:50:04;18.20;61.90
66057;DHT22;52842;52.666;5.202;2022-12-07T04:52:30;18.20;62.00
66057;DHT22;52842;52.666;5.202;2022-12-07T04:54:57;18.30;62.10
66057;DHT22;52842;52.666;5.202;2022-12-07T04:57:24;18.30;62.10
66057;DHT22;52842;52.666;5.202;2022-12-07T04:59:52;18.30;62.10
66057;DHT22;52842;52.666;5.202;2022-12-07T05:02:18;18.30;62.00
66057;DHT22;52842;52.666;5.202;2022-12-07T05:04:45;18.30;62.00
66057;DHT22;52842;52.666;5.202;2022-12-07T05:07:11;18.30;62.00
66057;DHT22;52842;52.666;5.202;2022-12-07T05:09:38;18.30;62.00
66057;DHT22;52842;52.666;5.202;2022-12-07T05:12:05;18.30;62.10
66057;DHT22;52842;52.666;5.202;2022-12-07T05:14:32;18.30;62.20
66057;DHT22;52842;52.666;5.202;2022-12-07T05:17:00;18.30;62.20
66057;DHT22;52842;52.666;5.202;2022-12-07T05:19:26;18.30;62.30
66057;DHT22;52842;52.666;5.202;2022-12-07T05:21:53;18.30;62.30
66057;DHT22;52842;52.666;5.202;2022-12-07T05:24:20;18.30;62.30
66057;DHT22;52842;52.666;5.202;2022-12-07T05:26:46;18.30;62.20
66057;DHT22;52842;52.666;5.202;2022-12-07T05:29:13;18.30;62.20
66057;DHT22;52842;52.666;5.202;2022-12-07T05:31:40;18.30;62.20
66057;DHT22;52842;52.666;5.202;2022-12-07T05:34:08;18.40;63.00
66057;DHT22;52842;52.666;5.202;2022-12-07T05:36:35;18.40;62.30
66057;DHT22;52842;52.666;5.202;2022-12-07T05:39:02;18.40;62.30
66057;DHT22;52842;52.666;5.202;2022-12-07T05:41:29;18.40;62.30
66057;DHT22;52842;52.666;5.202;2022-12-07T05:44:13;18.40;62.20
66057;DHT22;52842;52.666;5.202;2022-12-07T05:46:40;18.40;62.20
66057;DHT22;52842;52.666;5.202;2022-12-07T05:49:06;18.40;62.00
66057;DHT22;52842;52.666;5.202;2022-12-07T05:51:34;18.40;62.00
66057;DHT22;52842;52.666;5.202;2022-12-07T05:54:01;18.40;62.00
66057;DHT22;52842;52.666;5.202;2022-12-07T05:56:28;18.40;62.00
66057;DHT22;52842;52.666;5.202;2022-12-07T05:58:55;18.40;62.10
66057;DHT22;52842;52.666;5.202;2022-12-07T06:01:39;18.40;62.00
66057;DHT22;52842;52.666;5.202;2022-12-07T06:04:05;18.40;62.10
66057;DHT22;52842;52.666;5.202;2022-12-07T06:06:32;18.40;62.00
66057;DHT22;52842;52.666;5.202;2022-12-07T06:09:00;18.40;62.10
66057;DHT22;52842;52.666;5.202;2022-12-07T06:11:27;18.40;62.10
66057;DHT22;52842;52.666;5.202;2022-12-07T06:14:11;18.40;62.00
66057;DHT22;52842;52.666;5.202;2022-12-07T06:16:38;18.40;62.10
66057;DHT22;52842;52.666;5.202;2022-12-07T06:19:04;18.40;62.10
66057;DHT22;52842;52.666;5.202;2022-12-07T06:21:31;18.40;62.00
66057;DHT22;52842;52.666;5.202;2022-12-07T06:23:58;18.50;62.10
66057;DHT22;52842;52.666;5.202;2022-12-07T06:26:26;18.40;62.00
66057;DHT22;52842;52.666;5.202;2022-12-07T06:28:52;18.40;62.00
66057;DHT22;52842;52.666;5.202;2022-12-07T06:31:19;18.40;62.00
66057;DHT22;52842;52.666;5.202;2022-12-07T06:33:46;18.40;62.00
66057;DHT22;52842;52.666;5.202;2022-12-07T06:36:12;18.40;62.00
66057;DHT22;52842;52.666;5.202;2022-12-07T06:38:39;18.40;62.00
66057;DHT22;52842;52.666;5.202;2022-12-07T06:41:06;18.40;61.90
66057;DHT22;52842;52.666;5.202;2022-12-07T06:43:34;18.40;61.90
66057;DHT22;52842;52.666;5.202;2022-12-07T06:46:01;18.40;62.00
66057;DHT22;52842;52.666;5.202;2022-12-07T06:48:27;18.50;62.20
66057;DHT22;52842;52.666;5.202;2022-12-07T06:50:54;18.40;62.20
66057;DHT22;52842;52.666;5.202;2022-12-07T06:53:21;18.40;62.30
66057;DHT22;52842;52.666;5.202;2022-12-07T06:55:48;18.40;62.30
66057;DHT22;52842;52.666;5.202;2022-12-07T06:58:14;18.40;62.40
66057;DHT22;52842;52.666;5.202;2022-12-07T07:00:42;18.50;62.50
66057;DHT22;52842;52.666;5.202;2022-12-07T07:03:09;18.40;62.40
66057;DHT22;52842;52.666;5.202;2022-12-07T07:05:36;18.40;62.40
66057;DHT22;52842;52.666;5.202;2022-12-07T07:08:03;18.40;62.40
66057;DHT22;52842;52.666;5.202;2022-12-07T07:10:30;18.50;62.50
66057;DHT22;52842;52.666;5.202;2022-12-07T07:12:56;18.40;62.30
66057;DHT22;52842;52.666;5.202;2022-12-07T07:15:23;18.40;62.40
66057;DHT22;52842;52.666;5.202;2022-12-07T07:17:51;18.40;62.40
66057;DHT22;52842;52.666;5.202;2022-12-07T07:20:18;18.40;62.40
66057;DHT22;52842;52.666;5.202;2022-12-07T07:22:45;18.40;62.40
66057;DHT22;52842;52.666;5.202;2022-12-07T07:25:12;18.40;62.40
66057;DHT22;52842;52.666;5.202;2022-12-07T07:27:38;18.40;62.40
66057;DHT22;52842;52.666;5.202;2022-12-07T07:30:05;18.40;62.40
66057;DHT22;52842;52.666;5.202;2022-12-07T07:32:32;18.40;62.30
66057;DHT22;52842;52.666;5.202;2022-12-07T07:35:00;18.40;63.10
66057;DHT22;52842;52.666;5.202;2022-12-07T07:37:27;18.40;62.30
66057;DHT22;52842;52.666;5.202;2022-12-07T07:39:54;18.40;62.30
66057;DHT22;52842;52.666;5.202;2022-12-07T07:42:20;18.40;62.30
66057;DHT22;52842;52.666;5.202;2022-12-07T07:44:47;18.40;62.30
66057;DHT22;52842;52.666;5.202;2022-12-07T07:47:14;18.40;62.30
66057;DHT22;52842;52.666;5.202;2022-12-07T07:49:40;18.40;62.30
66057;DHT22;52842;52.666;5.202;2022-12-07T07:52:08;18.40;62.30
66057;DHT22;52842;52.666;5.202;2022-12-07T07:54:35;18.40;62.20
66057;DHT22;52842;52.666;5.202;2022-12-07T07:57:02;18.40;62.20
66057;DHT22;52842;52.666;5.202;2022-12-07T07:59:28;18.40;62.20
66057;DHT22;52842;52.666;5.202;2022-12-07T08:01:55;18.40;62.20
66057;DHT22;52842;52.666;5.202;2022-12-07T08:04:22;18.40;62.10
66057;DHT22;52842;52.666;5.202;2022-12-07T08:06:48;18.40;62.20
66057;DHT22;52842;52.666;5.202;2022-12-07T08:09:16;18.40;62.10
66057;DHT22;52842;52.666;5.202;2022-12-07T08:11:43;18.40;62.10
66057;DHT22;52842;52.666;5.202;2022-12-07T08:14:10;18.40;62.10
66057;DHT22;52842;52.666;5.202;2022-12-07T08:16:37;18.40;62.00
66057;DHT22;52842;52.666;5.202;2022-12-07T08:19:04;18.40;62.00
66057;DHT22;52842;52.666;5.202;2022-12-07T08:21:31;18.40;62.00
66057;DHT22;52842;52.666;5.202;2022-12-07T08:23:57;18.40;62.00
66057;DHT22;52842;52.666;5.202;2022-12-07T08:26:25;18.40;62.10
66057;DHT22;52842;52.666;5.202;2022-12-07T08:28:52;18.40;62.00
66057;DHT22;52842;52.666;5.202;2022-12-07T08:31:19;18.40;62.00
66057;DHT22;52842;52.666;5.202;2022-12-07T08:33:46;18.40;62.00
66057;DHT22;52842;52.666;5.202;2022-12-07T08:36:13;18.40;62.00
66057;DHT22;52842;52.666;5.202;2022-12-07T08:38:40;18.40;62.00
66057;DHT22;52842;52.666;5.202;2022-12-07T08:41:07;18.40;62.00
66057;DHT22;52842;52.666;5.202;2022-12-07T08:43:35;18.40;62.00
66057;DHT22;52842;52.666;5.202;2022-12-07T08:46:05;18.40;62.00
66057;DHT22;52842;52.666;5.202;2022-12-07T08:48:32;18.40;62.00
66057;DHT22;52842;52.666;5.202;2022-12-07T08:51:00;18.40;62.00
66057;DHT22;52842;52.666;5.202;2022-12-07T08:53:27;18.40;62.00
66057;DHT22;52842;52.666;5.202;2022-12-07T08:55:54;18.40;62.00
66057;DHT22;52842;52.666;5.202;2022-12-07T08:58:22;18.40;62.00
66057;DHT22;52842;52.666;5.202;2022-12-07T09:00:50;18.40;62.00
66057;DHT22;52842;52.666;5.202;2022-12-07T09:03:17;18.40;61.90
66057;DHT22;52842;52.666;5.202;2022-12-07T09:05:43;18.40;62.00
66057;DHT22;52842;52.666;5.202;2022-12-07T09:08:10;18.40;62.00
66057;DHT22;52842;52.666;5.202;2022-12-07T09:10:37;18.40;61.90
66057;DHT22;52842;52.666;5.202;2022-12-07T09:13:03;18.40;61.90
66057;DHT22;52842;52.666;5.202;2022-12-07T09:15:30;18.40;61.90
66057;DHT22;52842;52.666;5.202;2022-12-07T09:17:58;18.40;61.90
66057;DHT22;52842;52.666;5.202;2022-12-07T09:20:25;18.40;61.90
66057;DHT22;52842;52.666;5.202;2022-12-07T09:22:51;18.40;61.90
66057;DHT22;52842;52.666;5.202;2022-12-07T09:25:18;18.40;61.90
66057;DHT22;52842;52.666;5.202;2022-12-07T09:27:45;18.40;61.90
66057;DHT22;52842;52.666;5.202;2022-12-07T09:30:12;18.40;61.90
66057;DHT22;52842;52.666;5.202;2022-12-07T09:32:38;18.40;61.80
66057;DHT22;52842;52.666;5.202;2022-12-07T09:35:07;18.40;61.80
66057;DHT22;52842;52.666;5.202;2022-12-07T09:37:34;18.40;61.80
66057;DHT22;52842;52.666;5.202;2022-12-07T09:40:02;18.40;61.80
66057;DHT22;52842;52.666;5.202;2022-12-07T09:42:29;18.40;61.70
66057;DHT22;52842;52.666;5.202;2022-12-07T09:44:57;18.50;61.80
66057;DHT22;52842;52.666;5.202;2022-12-07T09:47:24;18.40;61.80
66057;DHT22;52842;52.666;5.202;2022-12-07T09:49:51;18.50;61.80
66057;DHT22;52842;52.666;5.202;2022-12-07T09:52:24;18.50;61.80
66057;DHT22;52842;52.666;5.202;2022-12-07T09:54:51;18.50;61.90
66057;DHT22;52842;52.666;5.202;2022-12-07T09:57:18;18.40;61.80
66057;DHT22;52842;52.666;5.202;2022-12-07T09:59:47;18.40;61.90
66057;DHT22;52842;52.666;5.202;2022-12-07T10:02:23;18.50;61.90
66057;DHT22;52842;52.666;5.202;2022-12-07T10:04:50;18.40;61.90
66057;DHT22;52842;52.666;5.202;2022-12-07T10:07:17;18.40;61.90
66057;DHT22;52842;52.666;5.202;2022-12-07T10:09:45;18.40;61.90
66057;DHT22;52842;52.666;5.202;2022-12-07T10:12:12;18.50;61.90
66057;DHT22;52842;52.666;5.202;2022-12-07T10:14:39;18.50;61.90
66057;DHT22;52842;52.666;5.202;2022-12-07T10:19:48;18.50;61.90
66057;DHT22;52842;52.666;5.202;2022-12-07T10:22:15;18.50;61.90
66057;DHT22;52842;52.666;5.202;2022-12-07T10:24:43;18.40;61.90
66057;DHT22;52842;52.666;5.202;2022-12-07T10:27:20;18.50;62.70
66057;DHT22;52842;52.666;5.202;2022-12-07T10:29:47;18.40;61.80
66057;DHT22;52842;52.666;5.202;2022-12-07T10:32:25;18.40;61.90
66057;DHT22;52842;52.666;5.202;2022-12-07T10:34:59;18.40;62.60
66057;DHT22;52842;52.666;5.202;2022-12-07T10:37:44;18.40;61.90
66057;DHT22;52842;52.666;5.202;2022-12-07T10:40:23;18.40;61.90
66057;DHT22;52842;52.666;5.202;2022-12-07T10:43:01;18.30;61.80
66057;DHT22;52842;52.666;5.202;2022-12-07T10:45:28;18.30;61.80
66057;DHT22;52842;52.666;5.202;2022-12-07T10:47:55;18.30;61.90
66057;DHT22;52842;52.666;5.202;2022-12-07T10:50:29;18.30;61.80
66057;DHT22;52842;52.666;5.202;2022-12-07T10:53:00;18.30;61.80
66057;DHT22;52842;52.666;5.202;2022-12-07T10:55:34;18.30;61.70
66057;DHT22;52842;52.666;5.202;2022-12-07T10:58:12;18.30;61.50
66057;DHT22;52842;52.666;5.202;2022-12-07T11:00:43;18.40;61.40
66057;DHT22;52842;52.666;5.202;2022-12-07T11:03:19;18.40;61.20
66057;DHT22;52842;52.666;5.202;2022-12-07T11:05:49;18.40;60.90
66057;DHT22;52842;52.666;5.202;2022-12-07T11:08:19;18.40;61.00
66057;DHT22;52842;52.666;5.202;2022-12-07T11:10:50;18.40;60.90
66057;DHT22;52842;52.666;5.202;2022-12-07T11:13:32;18.30;60.90
66057;DHT22;52842;52.666;5.202;2022-12-07T11:18:47;18.30;60.80
66057;DHT22;52842;52.666;5.202;2022-12-07T11:21:17;18.30;60.80
66057;DHT22;52842;52.666;5.202;2022-12-07T11:23:48;18.20;60.60
66057;DHT22;52842;52.666;5.202;2022-12-07T11:26:19;18.20;60.50
66057;DHT22;52842;52.666;5.202;2022-12-07T11:29:01;18.20;60.50
66057;DHT22;52842;52.666;5.202;2022-12-07T11:31:31;18.10;60.50
66057;DHT22;52842;52.666;5.202;2022-12-07T11:34:03;18.10;60.50
66057;DHT22;52842;52.666;5.202;2022-12-07T11:36:36;18.00;60.40
66057;DHT22;52842;52.666;5.202;2022-12-07T11:39:04;18.00;60.90
66057;DHT22;52842;52.666;5.202;2022-12-07T11:41:36;18.00;60.90
66057;DHT22;52842;52.666;5.202;2022-12-07T11:44:06;17.90;60.80
66057;DHT22;52842;52.666;5.202;2022-12-07T11:46:39;17.90;60.40
66057;DHT22;52842;52.666;5.202;2022-12-07T11:49:08;17.90;60.00
66057;DHT22;52842;52.666;5.202;2022-12-07T11:51:37;17.80;60.10
66057;DHT22;52842;52.666;5.202;2022-12-07T11:54:05;17.80;60.20
66057;DHT22;52842;52.666;5.202;2022-12-07T11:56:38;17.80;60.40
66057;DHT22;52842;52.666;5.202;2022-12-07T11:59:08;17.70;60.60
66057;DHT22;52842;52.666;5.202;2022-12-07T12:01:40;17.60;60.90
66057;DHT22;52842;52.666;5.202;2022-12-07T12:04:13;17.60;61.10
66057;DHT22;52842;52.666;5.202;2022-12-07T12:06:45;17.50;61.40
66057;DHT22;52842;52.666;5.202;2022-12-07T12:09:13;17.50;61.20
66057;DHT22;52842;52.666;5.202;2022-12-07T12:11:47;17.50;61.00
66057;DHT22;52842;52.666;5.202;2022-12-07T12:14:21;17.40;61.00
66057;DHT22;52842;52.666;5.202;2022-12-07T12:16:58;17.50;61.20
66057;DHT22;52842;52.666;5.202;2022-12-07T12:19:30;17.50;61.00
66057;DHT22;52842;52.666;5.202;2022-12-07T12:22:01;17.50;61.10
66057;DHT22;52842;52.666;5.202;2022-12-07T12:24:30;17.40;60.90
66057;DHT22;52842;52.666;5.202;2022-12-07T12:27:03;17.50;60.50
66057;DHT22;52842;52.666;5.202;2022-12-07T12:29:33;17.60;60.40
66057;DHT22;52842;52.666;5.202;2022-12-07T12:32:04;17.80;59.90
66057;DHT22;52842;52.666;5.202;2022-12-07T12:34:38;18.00;59.60
66057;DHT22;52842;52.666;5.202;2022-12-07T12:37:14;18.20;59.20
66057;DHT22;52842;52.666;5.202;2022-12-07T12:42:48;18.30;58.80
66057;DHT22;52842;52.666;5.202;2022-12-07T12:45:18;18.20;59.30
66057;DHT22;52842;52.666;5.202;2022-12-07T12:50:31;18.00;60.10
66057;DHT22;52842;52.666;5.202;2022-12-07T12:58:34;17.80;61.20
66057;DHT22;52842;52.666;5.202;2022-12-07T13:03:54;17.80;61.70
66057;DHT22;52842;52.666;5.202;2022-12-07T13:06:31;17.80;61.80
66057;DHT22;52842;52.666;5.202;2022-12-07T13:08:59;17.80;61.90
66057;DHT22;52842;52.666;5.202;2022-12-07T13:11:28;17.80;62.00
66057;DHT22;52842;52.666;5.202;2022-12-07T13:16:40;17.80;62.10
66057;DHT22;52842;52.666;5.202;2022-12-07T13:21:54;17.80;62.20
66057;DHT22;52842;52.666;5.202;2022-12-07T13:24:20;17.80;62.30
66057;DHT22;52842;52.666;5.202;2022-12-07T13:26:47;17.80;62.30
66057;DHT22;52842;52.666;5.202;2022-12-07T13:29:15;17.70;62.30
66057;DHT22;52842;52.666;5.202;2022-12-07T13:31:42;17.70;62.30
66057;DHT22;52842;52.666;5.202;2022-12-07T13:34:28;17.80;62.00
66057;DHT22;52842;52.666;5.202;2022-12-07T13:36:57;17.90;61.70
66057;DHT22;52842;52.666;5.202;2022-12-07T13:39:25;17.90;61.40
66057;DHT22;52842;52.666;5.202;2022-12-07T13:41:52;17.90;61.20
66057;DHT22;52842;52.666;5.202;2022-12-07T13:44:19;17.90;61.20
66057;DHT22;52842;52.666;5.202;2022-12-07T13:46:51;17.90;61.10
66057;DHT22;52842;52.666;5.202;2022-12-07T13:49:20;17.90;61.20
66057;DHT22;52842;52.666;5.202;2022-12-07T13:51:47;17.90;61.20
66057;DHT22;52842;52.666;5.202;2022-12-07T13:54:16;17.90;61.10
66057;DHT22;52842;52.666;5.202;2022-12-07T13:56:43;17.80;61.10
66057;DHT22;52842;52.666;5.202;2022-12-07T13:59:13;17.80;61.10
66057;DHT22;52842;52.666;5.202;2022-12-07T14:01:40;17.80;61.10
66057;DHT22;52842;52.666;5.202;2022-12-07T14:06:59;17.80;60.80
66057;DHT22;52842;52.666;5.202;2022-12-07T14:09:28;17.90;60.40
66057;DHT22;52842;52.666;5.202;2022-12-07T14:11:56;17.80;60.20
66057;DHT22;52842;52.666;5.202;2022-12-07T14:14:25;17.80;60.10
66057;DHT22;52842;52.666;5.202;2022-12-07T14:16:56;17.80;60.10
66057;DHT22;52842;52.666;5.202;2022-12-07T14:22:09;17.70;60.50
66057;DHT22;52842;52.666;5.202;2022-12-07T14:24:43;17.70;60.80
66057;DHT22;52842;52.666;5.202;2022-12-07T14:27:16;17.70;61.00
66057;DHT22;52842;52.666;5.202;2022-12-07T14:29:43;17.70;61.20
66057;DHT22;52842;52.666;5.202;2022-12-07T14:34:55;17.70;61.40
66057;DHT22;52842;52.666;5.202;2022-12-07T14:37:22;17.80;61.40
66057;DHT22;52842;52.666;5.202;2022-12-07T14:39:50;17.80;61.20
66057;DHT22;52842;52.666;5.202;2022-12-07T14:42:16;18.00;61.20
66057;DHT22;52842;52.666;5.202;2022-12-07T14:44:43;17.90;61.00
66057;DHT22;52842;52.666;5.202;2022-12-07T14:47:10;17.90;61.20
66057;DHT22;52842;52.666;5.202;2022-12-07T14:49:37;17.80;61.40
66057;DHT22;52842;52.666;5.202;2022-12-07T14:52:04;17.80;61.70
66057;DHT22;52842;52.666;5.202;2022-12-07T14:54:31;17.70;61.90
66057;DHT22;52842;52.666;5.202;2022-12-07T14:56:59;17.70;62.10
66057;DHT22;52842;52.666;5.202;2022-12-07T14:59:26;17.70;62.20
66057;DHT22;52842;52.666;5.202;2022-12-07T15:01:53;17.70;62.30
66057;DHT22;52842;52.666;5.202;2022-12-07T15:04:19;17.70;62.40
66057;DHT22;52842;52.666;5.202;2022-12-07T15:06:54;17.70;62.40
66057;DHT22;52842;52.666;5.202;2022-12-07T15:09:21;17.70;62.40
66057;DHT22;52842;52.666;5.202;2022-12-07T15:11:47;17.70;62.40
66057;DHT22;52842;52.666;5.202;2022-12-07T15:14:15;17.70;62.50
66057;DHT22;52842;52.666;5.202;2022-12-07T15:16:42;17.70;62.50
66057;DHT22;52842;52.666;5.202;2022-12-07T15:19:10;17.70;62.50
66057;DHT22;52842;52.666;5.202;2022-12-07T15:21:38;17.80;62.60
66057;DHT22;52842;52.666;5.202;2022-12-07T15:24:05;17.80;62.50
66057;DHT22;52842;52.666;5.202;2022-12-07T15:26:31;17.80;62.50
66057;DHT22;52842;52.666;5.202;2022-12-07T15:28:58;17.80;62.50
66057;DHT22;52842;52.666;5.202;2022-12-07T15:31:26;17.80;62.50
66057;DHT22;52842;52.666;5.202;2022-12-07T15:33:53;17.80;62.40
66057;DHT22;52842;52.666;5.202;2022-12-07T15:36:20;17.90;62.50
66057;DHT22;52842;52.666;5.202;2022-12-07T15:38:47;17.90;62.50
66057;DHT22;52842;52.666;5.202;2022-12-07T15:41:14;17.90;62.50
66057;DHT22;52842;52.666;5.202;2022-12-07T15:43:40;17.90;62.50
66057;DHT22;52842;52.666;5.202;2022-12-07T15:46:30;17.90;62.50
66057;DHT22;52842;52.666;5.202;2022-12-07T15:48:58;17.90;62.40
66057;DHT22;52842;52.666;5.202;2022-12-07T15:51:25;17.90;62.40
66057;DHT22;52842;52.666;5.202;2022-12-07T15:53:52;17.90;62.30
66057;DHT22;52842;52.666;5.202;2022-12-07T15:56:19;17.90;62.30
66057;DHT22;52842;52.666;5.202;2022-12-07T15:58:46;17.90;62.30
66057;DHT22;52842;52.666;5.202;2022-12-07T16:01:13;17.90;62.30
66057;DHT22;52842;52.666;5.202;2022-12-07T16:03:41;18.00;62.30
66057;DHT22;52842;52.666;5.202;2022-12-07T16:06:08;18.00;62.30
66057;DHT22;52842;52.666;5.202;2022-12-07T16:08:35;18.00;62.20
66057;DHT22;52842;52.666;5.202;2022-12-07T16:11:04;18.00;62.20
66057;DHT22;52842;52.666;5.202;2022-12-07T16:13:31;18.00;62.10
66057;DHT22;52842;52.666;5.202;2022-12-07T16:15:57;18.00;62.00